Time;durP1;ratioP1;P1;durP2;ratioP2;P2;SDS_P1;SDS_P2;PMS_P1;PMS_P2;Temp;Humidity;BMP_temperature;BMP_pressure;BME280_temperature;BME280_humidity;BME280_pressure;Samples;Min_cycle;Max_cycle;Signal;HPM_P1;HPM_P2
2022/04/30 00:02:11;;;;;;;4.05;2.30;;;;;;;10.41;72.23;101624.17;1721953;83;20986;-78
2022/04/30 00:04:48;;;;;;;4.95;2.70;;;;;;;10.39;72.28;101628.16;1720989;83;20986;-79
2022/04/30 00:07:20;;;;;;;3.05;2.00;;;;;;;10.39;72.27;101631.25;1724693;80;20943;-79
2022/04/30 00:09:47;;;;;;;9.78;2.60;;;;;;;10.38;72.37;101625.13;1724759;80;21182;-77
2022/04/30 00:12:16;;;;;;;4.00;2.02;;;;;;;10.36;72.30;101621.29;1715474;83;22498;-77
2022/04/30 00:14:43;;;;;;;3.42;2.37;;;;;;;10.40;72.33;101626.39;1710725;84;20849;-78
2022/04/30 00:17:11;;;;;;;3.72;2.00;;;;;;;10.43;72.19;101627.59;1708879;84;20888;-79
2022/04/30 00:19:38;;;;;;;2.35;2.15;;;;;;;10.46;72.14;101621.73;1708995;82;20932;-78
2022/04/30 00:22:05;;;;;;;6.70;2.85;;;;;;;10.48;71.99;101620.36;1709035;84;20889;-78
2022/04/30 00:24:31;;;;;;;4.33;2.70;;;;;;;10.51;71.96;101617.59;1708961;84;21265;-79
2022/04/30 00:27:00;;;;;;;4.20;2.20;;;;;;;10.54;71.77;101609.14;1709178;84;20979;-78
2022/04/30 00:29:30;;;;;;;4.45;2.30;;;;;;;10.54;71.49;101610.92;1708961;84;21041;-80
2022/04/30 00:31:57;;;;;;;2.50;2.05;;;;;;;10.51;71.38;101606.64;1708781;84;20959;-80
2022/04/30 00:34:23;;;;;;;7.37;3.17;;;;;;;10.49;71.24;101607.63;1709102;84;20888;-79
2022/04/30 00:36:50;;;;;;;3.30;2.10;;;;;;;10.47;71.27;101616.89;1709031;82;21091;-79
2022/04/30 00:39:16;;;;;;;2.60;2.25;;;;;;;10.47;71.25;101616.02;1708992;82;20964;-79
2022/04/30 00:41:46;;;;;;;3.22;2.27;;;;;;;10.44;71.12;101617.48;1708895;84;20868;-78
2022/04/30 00:44:21;;;;;;;4.83;2.35;;;;;;;10.39;71.12;101614.21;1744815;81;20889;-78
2022/04/30 00:46:48;;;;;;;3.30;2.33;;;;;;;10.36;71.23;101619.13;1708743;83;20919;-78
2022/04/30 00:49:15;;;;;;;3.10;1.70;;;;;;;10.35;71.31;101610.86;1708894;84;21236;-79
2022/04/30 00:51:43;;;;;;;2.33;1.75;;;;;;;10.36;71.53;101609.95;1708864;84;20928;-78
2022/04/30 00:54:12;;;;;;;2.52;2.22;;;;;;;10.40;71.13;101611.97;1709630;84;20864;-76
2022/04/30 00:56:51;;;;;;;1.72;1.60;;;;;;;10.36;71.17;101612.58;1709069;84;20940;-78
2022/04/30 00:59:18;;;;;;;2.40;2.12;;;;;;;10.34;71.25;101607.86;1709026;84;20904;-79
2022/04/30 01:01:46;;;;;;;3.33;2.08;;;;;;;10.32;71.11;101607.06;1709436;82;21210;-79
2022/04/30 01:04:18;;;;;;;2.65;2.10;;;;;;;10.29;71.24;101609.37;1708996;82;20873;-79
2022/04/30 01:06:57;;;;;;;2.98;2.17;;;;;;;10.27;71.22;101607.67;1708987;84;20896;-78
2022/04/30 01:09:28;;;;;;;3.70;1.87;;;;;;;10.27;71.37;101616.84;1708903;84;20877;-80
2022/04/30 01:11:57;;;;;;;4.17;2.10;;;;;;;10.27;71.46;101614.22;1711920;82;21465;-79
2022/04/30 01:14:31;;;;;;;2.47;2.10;;;;;;;10.25;71.57;101619.55;1716575;83;21239;-80
2022/04/30 01:17:00;;;;;;;2.62;2.00;;;;;;;10.20;71.81;101618.88;1716645;83;20979;-78
2022/04/30 01:19:32;;;;;;;2.17;1.98;;;;;;;10.12;72.09;101615.28;1752380;81;21253;-79
2022/04/30 01:22:01;;;;;;;2.40;1.95;;;;;;;10.10;72.44;101618.89;1751590;81;20888;-78
2022/04/30 01:24:30;;;;;;;3.12;1.80;;;;;;;10.06;72.76;101609.45;1752694;82;20841;-79
2022/04/30 01:26:58;;;;;;;3.00;2.00;;;;;;;10.02;72.96;101603.47;1752633;82;21267;-78
2022/04/30 01:29:25;;;;;;;2.75;1.80;;;;;;;10.02;73.15;101604.78;1752518;82;20893;-78
2022/04/30 01:37:26;;;;;;;2.75;2.05;;;;;;;9.99;73.63;101595.75;1753694;82;20857;-78
2022/04/30 01:40:03;;;;;;;4.17;2.10;;;;;;;9.99;73.84;101592.28;1752863;82;21268;-79
2022/04/30 01:42:37;;;;;;;3.77;2.52;;;;;;;9.99;74.08;101594.91;1716575;83;20971;-78
2022/04/30 01:45:05;;;;;;;3.37;2.52;;;;;;;10.01;74.11;101592.61;1716609;83;20931;-79
2022/04/30 01:47:34;;;;;;;4.35;3.95;;;;;;;10.03;74.08;101591.24;1716548;83;20911;-78
2022/04/30 01:50:01;;;;;;;6.60;2.25;;;;;;;10.00;74.04;101595.28;1716554;83;21560;-78
2022/04/30 01:52:28;;;;;;;3.60;2.05;;;;;;;9.96;74.17;101594.58;1716640;83;21213;-78
2022/04/30 01:54:54;;;;;;;5.20;2.12;;;;;;;9.91;74.20;101581.64;1716720;83;20880;-81
2022/04/30 01:57:25;;;;;;;3.30;1.80;;;;;;;9.86;74.19;101590.63;1716671;83;21007;-80
2022/04/30 01:59:53;;;;;;;3.30;1.90;;;;;;;9.82;74.19;101582.02;1716199;83;20939;-80
2022/04/30 02:02:23;;;;;;;3.10;2.25;;;;;;;9.77;74.23;101580.06;1716941;83;20959;-80
2022/04/30 02:04:52;;;;;;;4.28;2.08;;;;;;;9.72;74.12;101583.34;1716752;82;21220;-79
2022/04/30 02:07:20;;;;;;;4.80;2.10;;;;;;;9.64;73.97;101578.86;1752455;81;21043;-79
2022/04/30 02:09:47;;;;;;;2.67;1.82;;;;;;;9.58;73.95;101578.64;1752873;82;21484;-79
2022/04/30 02:12:15;;;;;;;3.65;2.00;;;;;;;9.49;74.01;101579.02;1716358;83;20872;-80
2022/04/30 02:14:46;;;;;;;2.58;2.00;;;;;;;9.40;74.09;101571.06;1716588;83;20983;-79
2022/04/30 02:17:12;;;;;;;4.75;1.90;;;;;;;9.34;74.27;101573.95;1716887;83;21118;-79
2022/04/30 02:22:25;;;;;;;1.80;1.70;;;;;;;9.24;74.57;101585.22;1717030;83;20856;-79
2022/04/30 02:24:52;;;;;;;1.77;1.67;;;;;;;9.25;74.78;101581.70;1716480;83;20888;-79
2022/04/30 02:27:21;;;;;;;2.50;1.52;;;;;;;9.26;74.71;101593.02;1716622;83;20852;-80
2022/04/30 02:29:49;;;;;;;2.20;1.80;;;;;;;9.23;74.79;101587.45;1716515;83;21158;-79
2022/04/30 02:32:16;;;;;;;4.55;2.02;;;;;;;9.24;74.76;101598.77;1716484;83;20927;-79
2022/04/30 02:34:43;;;;;;;2.50;1.55;;;;;;;9.22;74.69;101605.36;1716610;83;20928;-79
2022/04/30 02:37:14;;;;;;;3.05;2.40;;;;;;;9.22;74.73;101605.36;1716825;83;20987;-79
2022/04/30 02:39:48;;;;;;;2.20;1.67;;;;;;;9.24;74.83;101614.00;1716616;83;20872;-78
2022/04/30 02:42:14;;;;;;;3.33;1.75;;;;;;;9.27;74.77;101609.98;1716641;82;21386;-78
2022/04/30 02:44:41;;;;;;;2.08;1.65;;;;;;;9.30;74.76;101610.31;1716481;83;21461;-78
2022/04/30 02:47:08;;;;;;;3.45;1.52;;;;;;;9.33;74.56;101612.34;1716533;83;21117;-79
2022/04/30 02:49:38;;;;;;;4.25;1.60;;;;;;;9.40;74.51;101612.95;1716580;82;20940;-79
2022/04/30 02:52:04;;;;;;;4.28;1.70;;;;;;;9.43;73.99;101605.00;1716929;82;20848;-79
2022/04/30 02:54:34;;;;;;;1.65;1.52;;;;;;;9.41;73.72;101609.91;1716756;83;21126;-80
2022/04/30 02:57:01;;;;;;;4.30;1.80;;;;;;;9.37;73.38;101612.23;1752584;81;21417;-79
2022/04/30 03:02:14;;;;;;;1.80;1.70;;;;;;;9.26;73.32;101613.49;1717130;82;21442;-78
2022/04/30 03:04:46;;;;;;;1.87;1.60;;;;;;;9.22;73.22;101609.28;1752912;81;20881;-79
2022/04/30 03:07:12;;;;;;;2.10;1.65;;;;;;;9.20;73.32;101615.03;1716993;83;21116;-79
2022/04/30 03:09:39;;;;;;;2.80;1.42;;;;;;;9.21;73.37;101619.83;1716685;82;20916;-80
2022/04/30 03:12:09;;;;;;;2.67;1.60;;;;;;;9.25;73.62;101620.97;1716642;83;20856;-79
2022/04/30 03:14:36;;;;;;;3.65;2.00;;;;;;;9.31;73.61;101626.41;1716860;83;20928;-79
2022/04/30 03:22:34;;;;;;;3.52;2.22;;;;;;;9.54;73.25;101628.14;1715343;81;20848;-79
2022/04/30 03:25:00;;;;;;;3.80;1.70;;;;;;;9.55;73.00;101621.98;1719108;83;20915;-79
2022/04/30 03:27:27;;;;;;;2.75;1.98;;;;;;;9.53;72.76;101623.34;1717739;83;20935;-79
2022/04/30 03:29:55;;;;;;;2.25;1.85;;;;;;;9.51;72.82;101625.63;1716796;82;20948;-78
2022/04/30 03:32:24;;;;;;;2.20;1.77;;;;;;;9.52;72.72;101630.81;1716851;82;21128;-78
2022/04/30 03:34:52;;;;;;;2.80;1.80;;;;;;;9.53;72.86;101637.73;1717221;83;21378;-79
2022/04/30 03:37:18;;;;;;;3.85;2.12;;;;;;;9.57;72.92;101638.95;1716805;83;20991;-79
2022/04/30 03:39:44;;;;;;;1.85;1.70;;;;;;;9.60;72.82;101644.05;1716802;83;20888;-80
2022/04/30 03:42:11;;;;;;;3.40;2.22;;;;;;;9.65;72.78;101643.41;1717225;83;20951;-80
2022/04/30 03:44:39;;;;;;;2.25;1.72;;;;;;;9.69;72.71;101638.02;1716714;83;20940;-79
2022/04/30 03:47:06;;;;;;;2.20;1.70;;;;;;;9.72;72.67;101636.57;1717438;83;20899;-80
2022/04/30 03:49:34;;;;;;;4.25;1.20;;;;;;;9.72;72.61;101635.26;1716745;83;20932;-81
2022/04/30 03:52:00;;;;;;;3.17;1.35;;;;;;;9.70;72.53;101637.55;1716570;82;20984;-80
2022/04/30 03:54:27;;;;;;;1.10;1.07;;;;;;;9.74;72.59;101636.52;1716949;82;21006;-79
2022/04/30 03:56:54;;;;;;;2.60;1.62;;;;;;;9.78;72.57;101628.91;1716637;83;21141;-80
2022/04/30 03:59:20;;;;;;;1.67;1.57;;;;;;;9.80;72.38;101631.47;1716411;82;20927;-79
2022/04/30 04:01:48;;;;;;;4.53;2.00;;;;;;;9.73;72.44;101626.47;1716550;82;20948;-79
2022/04/30 04:04:14;;;;;;;2.47;2.27;;;;;;;9.70;72.62;101632.31;1716825;83;20884;-80
2022/04/30 04:06:42;;;;;;;3.80;3.40;;;;;;;9.69;72.72;101635.39;1716633;82;21523;-80
2022/04/30 04:09:10;;;;;;;4.12;2.80;;;;;;;9.71;72.85;101644.02;1716536;83;21181;-80
2022/04/30 04:11:36;;;;;;;3.55;3.15;;;;;;;9.78;73.01;101644.63;1716912;82;20963;-80
2022/04/30 04:19:36;;;;;;;;;;;;;;;10.00;72.40;101645.07;1711557;84;20864;-81
2022/04/30 04:22:03;;;;;;;1.80;1.70;;;;;;;10.01;71.97;101645.02;1695554;84;21217;-81
2022/04/30 04:27:17;;;;;;;1.37;1.27;;;;;;;9.93;72.10;101641.84;1695670;84;21360;-79
2022/04/30 04:29:44;;;;;;;2.25;1.57;;;;;;;9.91;72.05;101644.52;1696405;84;20956;-80
2022/04/30 04:32:11;;;;;;;1.45;1.32;;;;;;;9.88;71.88;101642.03;1695585;84;20989;-80
2022/04/30 04:34:37;;;;;;;1.47;1.37;;;;;;;9.83;72.05;101640.08;1695663;83;21161;-81
2022/04/30 04:37:04;;;;;;;1.45;1.30;;;;;;;9.82;72.28;101642.74;1695698;84;20934;-78
2022/04/30 04:39:31;;;;;;;1.90;1.22;;;;;;;9.82;72.35;101637.50;1695884;84;20935;-81
2022/04/30 04:41:57;;;;;;;1.62;1.22;;;;;;;9.86;72.42;101637.78;1695728;83;21521;-79
2022/04/30 04:44:24;;;;;;;1.90;1.10;;;;;;;9.91;72.45;101644.52;1695655;84;21391;-80
2022/04/30 04:46:51;;;;;;;1.17;1.07;;;;;;;9.99;72.29;101644.23;1695789;84;21294;-80
2022/04/30 04:49:17;;;;;;;1.57;1.42;;;;;;;10.05;72.14;101645.72;1695872;84;20960;-79
2022/04/30 04:51:45;;;;;;;1.52;1.42;;;;;;;10.04;72.21;101648.81;1714398;82;20908;-79
2022/04/30 04:54:11;;;;;;;1.60;1.40;;;;;;;10.03;72.31;101644.96;1714666;83;20964;-79
2022/04/30 04:56:42;;;;;;;2.17;1.45;;;;;;;10.03;72.62;101648.43;1714423;83;21453;-80
2022/04/30 04:59:08;;;;;;;1.72;1.47;;;;;;;10.06;72.82;101645.67;1714539;83;21255;-80
2022/04/30 05:01:36;;;;;;;1.87;1.67;;;;;;;10.09;72.58;101642.06;1714350;82;20865;-79
2022/04/30 05:04:04;;;;;;;1.77;1.67;;;;;;;10.13;72.36;101642.34;1714384;83;21410;-79
2022/04/30 05:06:30;;;;;;;11.22;7.85;;;;;;;10.15;72.34;101643.13;1714659;83;21039;-80
2022/04/30 05:08:56;;;;;;;2.15;1.92;;;;;;;10.18;72.48;101642.98;1714748;83;20983;-80
2022/04/30 05:11:23;;;;;;;1.57;1.47;;;;;;;10.22;72.64;101645.88;1714975;83;21182;-78
2022/04/30 05:13:49;;;;;;;2.37;1.85;;;;;;;10.28;72.56;101650.03;1720278;83;21484;-80
2022/04/30 05:16:18;;;;;;;2.08;1.50;;;;;;;10.40;72.50;101651.30;1722693;83;21051;-80
2022/04/30 05:18:46;;;;;;;4.50;2.22;;;;;;;10.55;71.90;101657.20;1722475;83;20963;-81
2022/04/30 05:21:12;;;;;;;1.70;1.60;;;;;;;10.67;71.77;101658.43;1722728;82;21544;-81
2022/04/30 05:23:42;;;;;;;1.80;1.70;;;;;;;10.76;71.16;101660.21;1723351;83;20995;-80
2022/04/30 05:26:19;;;;;;;1.95;1.72;;;;;;;10.81;70.69;101660.47;1723088;82;20979;-81
2022/04/30 05:28:46;;;;;;;2.55;1.80;;;;;;;10.78;70.39;101658.38;1722437;83;21498;-81
2022/04/30 05:31:13;;;;;;;1.75;1.57;;;;;;;10.72;70.18;101664.35;1723408;82;20884;-79
2022/04/30 05:33:39;;;;;;;1.40;1.30;;;;;;;10.64;70.45;101658.58;1723037;83;20995;-82
2022/04/30 05:36:07;;;;;;;1.77;1.50;;;;;;;10.62;70.52;101660.41;1723036;83;21808;-81
2022/04/30 05:38:33;;;;;;;1.87;1.57;;;;;;;10.61;70.86;101654.32;1722956;83;20908;-81
2022/04/30 05:41:02;;;;;;;2.47;1.60;;;;;;;10.62;70.86;101656.48;1723015;83;20911;-80
2022/04/30 05:43:28;;;;;;;3.00;2.00;;;;;;;10.66;70.86;101651.49;1722690;82;20959;-80
2022/04/30 05:45:55;;;;;;;2.17;1.82;;;;;;;10.74;71.13;101650.70;1723170;82;20880;-80
2022/04/30 05:48:22;;;;;;;5.78;2.67;;;;;;;10.89;71.37;101661.80;1722890;82;21236;-80
2022/04/30 05:50:51;;;;;;;2.02;1.80;;;;;;;11.02;70.74;101654.70;1722622;83;20998;-81
2022/04/30 05:53:18;;;;;;;2.42;1.82;;;;;;;11.12;70.63;101660.79;1723101;83;21014;-79
2022/04/30 05:55:45;;;;;;;3.47;2.00;;;;;;;11.21;70.35;101656.89;1724047;83;21012;-81
2022/04/30 05:58:13;;;;;;;2.83;2.05;;;;;;;11.30;69.90;101659.56;1722892;82;21453;-80
2022/04/30 06:00:40;;;;;;;3.92;1.72;;;;;;;11.35;69.25;101656.25;1723088;82;21064;-80
2022/04/30 06:03:06;;;;;;;2.27;1.57;;;;;;;11.44;69.26;101666.32;1722870;83;20979;-80
2022/04/30 06:05:37;;;;;;;4.45;2.10;;;;;;;11.53;68.92;101658.47;1722938;83;20872;-81
2022/04/30 06:08:05;;;;;;;3.75;1.72;;;;;;;11.58;68.42;101664.35;1723160;83;20939;-80
2022/04/30 06:10:32;;;;;;;2.60;1.65;;;;;;;11.59;68.48;101664.76;1722927;82;20955;-80
2022/04/30 06:12:59;;;;;;;1.75;1.60;;;;;;;11.65;68.64;101661.84;1721328;82;21078;-79
2022/04/30 06:15:28;;;;;;;3.45;2.58;;;;;;;11.78;68.48;101660.33;1714747;83;20952;-80
2022/04/30 06:17:56;;;;;;;2.42;1.80;;;;;;;11.96;68.25;101669.56;1714694;82;20920;-80
2022/04/30 06:20:22;;;;;;;1.62;1.50;;;;;;;12.12;67.57;101667.06;1714436;83;20920;-81
2022/04/30 06:22:49;;;;;;;2.67;2.47;;;;;;;12.29;67.14;101672.30;1714785;83;21007;-81
2022/04/30 06:25:16;;;;;;;4.20;2.10;;;;;;;12.45;66.39;101671.09;1714555;83;21176;-80
2022/04/30 06:27:43;;;;;;;2.17;2.02;;;;;;;12.59;65.99;101668.59;1688153;80;20916;-81
2022/04/30 06:30:11;;;;;;;2.58;1.92;;;;;;;12.77;65.82;101666.78;1717197;80;20992;-80
2022/04/30 06:32:42;;;;;;;4.25;2.27;;;;;;;12.99;64.96;101669.12;1716560;80;21016;-80
2022/04/30 06:35:11;;;;;;;4.85;2.95;;;;;;;13.22;64.93;101670.98;1716725;83;20999;-81
2022/04/30 06:37:40;;;;;;;4.95;3.25;;;;;;;13.47;64.41;101667.88;1716499;83;21157;-79
2022/04/30 06:40:09;;;;;;;5.47;2.92;;;;;;;13.85;63.73;101670.16;1715293;83;21023;-80
2022/04/30 06:42:40;;;;;;;3.85;2.33;;;;;;;14.29;63.17;101671.56;1715061;83;20948;-81
2022/04/30 06:45:10;;;;;;;5.05;2.58;;;;;;;14.84;61.53;101673.18;1715055;83;20939;-80
2022/04/30 06:47:37;;;;;;;3.35;2.20;;;;;;;15.42;59.98;101664.73;1715019;83;20999;-80
2022/04/30 06:50:05;;;;;;;4.17;2.27;;;;;;;15.93;57.92;101662.33;1714412;83;21244;-80
2022/04/30 06:52:32;;;;;;;1.37;1.20;;;;;;;16.20;56.09;101648.22;1714488;83;20951;-81
2022/04/30 06:57:47;;;;;;;3.58;1.65;;;;;;;17.11;54.42;101647.64;1714487;83;20920;-82
2022/04/30 07:02:59;;;;;;;1.50;1.37;;;;;;;18.46;50.38;101646.63;1714264;83;21229;-81
2022/04/30 07:05:31;;;;;;;2.42;1.72;;;;;;;18.93;49.47;101652.73;1714077;83;20960;-81
2022/04/30 07:07:54;;;;;;;3.10;1.30;;;;;;;19.17;47.78;101644.63;1712707;82;20880;-81
2022/04/30 07:10:21;;;;;;;4.17;1.75;;;;;;;19.33;46.70;101645.06;1714450;83;20912;-80
2022/04/30 07:12:48;;;;;;;1.55;1.45;;;;;;;19.50;46.05;101645.50;1714252;83;20924;-81
2022/04/30 07:15:15;;;;;;;3.92;1.95;;;;;;;19.74;46.06;101637.36;1714200;82;21748;-82
2022/04/30 07:17:42;;;;;;;4.42;1.72;;;;;;;20.04;44.76;101631.31;1714034;83;21386;-82
2022/04/30 07:20:10;;;;;;;2.90;1.30;;;;;;;20.27;42.87;101632.02;1714999;83;20972;-79
2022/04/30 07:22:38;;;;;;;1.45;1.15;;;;;;;20.42;40.49;101637.37;1714865;82;21023;-81
2022/04/30 07:25:06;;;;;;;0.90;0.80;;;;;;;20.60;37.56;101631.47;1714241;83;20872;-81
2022/04/30 07:27:33;;;;;;;3.87;1.00;;;;;;;20.86;36.78;101631.38;1714144;82;21122;-80
2022/04/30 07:29:59;;;;;;;1.67;0.70;;;;;;;21.11;37.17;101627.38;1714124;83;20920;-82
2022/04/30 07:32:26;;;;;;;2.05;1.00;;;;;;;21.50;36.88;101628.01;1714564;83;20880;-80
2022/04/30 07:34:54;;;;;;;0.82;0.75;;;;;;;21.84;36.25;101622.25;1714108;82;20909;-80
2022/04/30 07:37:21;;;;;;;1.05;0.95;;;;;;;22.30;34.93;101623.36;1714195;82;20916;-83
2022/04/30 07:39:47;;;;;;;1.02;1.00;;;;;;;22.73;35.04;101619.27;1714218;82;21840;-82
2022/04/30 07:42:14;;;;;;;3.58;1.45;;;;;;;23.17;33.96;101614.16;1714118;82;20869;-81
2022/04/30 07:44:40;;;;;;;1.70;1.52;;;;;;;23.49;33.83;101620.34;1714024;83;21006;-80
2022/04/30 07:47:09;;;;;;;1.32;1.10;;;;;;;23.65;34.16;101612.95;1714070;83;21070;-81
2022/04/30 07:49:36;;;;;;;2.30;1.20;;;;;;;23.77;33.80;101622.48;1714126;83;20852;-81
2022/04/30 07:52:04;;;;;;;12.73;1.55;;;;;;;23.85;32.15;101608.80;1714155;82;21211;-80
2022/04/30 07:54:30;;;;;;;3.20;1.32;;;;;;;23.53;32.25;101614.19;1714381;83;21007;-78
2022/04/30 07:56:58;;;;;;;2.95;1.05;;;;;;;23.29;32.51;101614.77;1714181;83;21323;-81
2022/04/30 07:59:26;;;;;;;1.40;1.02;;;;;;;23.14;32.41;101622.47;1714078;83;21047;-81
2022/04/30 08:01:54;;;;;;;3.35;1.25;;;;;;;23.04;32.24;101626.55;1714117;82;20893;-81
2022/04/30 08:04:20;;;;;;;3.02;1.32;;;;;;;23.20;32.75;101619.20;1715204;82;21875;-82
2022/04/30 08:06:47;;;;;;;3.12;0.72;;;;;;;23.50;32.66;101621.17;1714109;83;20983;-81
2022/04/30 08:09:16;;;;;;;1.42;0.98;;;;;;;24.03;32.35;101611.45;1714165;83;21382;-81
2022/04/30 08:11:42;;;;;;;3.30;1.27;;;;;;;24.49;32.12;101606.27;1714371;82;20928;-81
2022/04/30 08:14:10;;;;;;;1.95;1.37;;;;;;;24.84;30.76;101604.93;1714006;83;20940;-82
2022/04/30 08:16:36;;;;;;;2.87;1.30;;;;;;;25.14;30.69;101607.53;1714454;83;21185;-82
2022/04/30 08:19:02;;;;;;;1.22;0.95;;;;;;;25.40;28.73;101603.43;1714194;83;20924;-82
2022/04/30 08:21:29;;;;;;;1.37;1.10;;;;;;;25.40;28.50;101600.75;1714230;82;20956;-82
2022/04/30 08:23:56;;;;;;;1.42;1.02;;;;;;;25.43;28.93;101593.21;1714303;83;20917;-82
2022/04/30 08:28:19;;;;;;;2.22;0.82;;;;;;;25.74;29.31;101588.50;1816584;79;23202;-80
2022/04/30 08:30:46;;;;;;;1.60;1.07;;;;;;;25.91;29.01;101592.06;1789664;80;21066;-81
2022/04/30 08:33:13;;;;;;;1.12;0.80;;;;;;;26.09;28.03;101593.73;1789561;80;21766;-81
2022/04/30 08:35:39;;;;;;;2.90;0.93;;;;;;;25.99;27.00;101588.03;1789463;80;20868;-81
2022/04/30 08:38:06;;;;;;;5.50;0.80;;;;;;;25.89;27.85;101582.50;1789492;80;20912;-82
2022/04/30 08:40:32;;;;;;;2.50;1.10;;;;;;;25.94;27.47;101585.00;1789591;79;20895;-79
2022/04/30 08:43:14;;;;;;;1.17;0.90;;;;;;;25.99;27.05;101584.00;1789670;80;20955;-82
2022/04/30 08:45:42;;;;;;;2.02;0.65;;;;;;;26.15;26.65;101589.86;1790008;80;21227;-78
2022/04/30 08:48:11;;;;;;;5.62;1.00;;;;;;;26.11;26.94;101575.08;1790887;80;20935;-81
2022/04/30 08:50:39;;;;;;;1.15;0.88;;;;;;;26.04;28.30;101580.29;1789828;79;20923;-81
2022/04/30 08:53:06;;;;;;;0.85;0.72;;;;;;;25.88;27.08;101575.42;1789445;80;20935;-81
2022/04/30 08:55:35;;;;;;;5.83;0.95;;;;;;;25.73;28.35;101570.72;1789507;80;20876;-81
2022/04/30 08:58:02;;;;;;;1.55;0.75;;;;;;;25.77;27.94;101572.06;1789659;79;21138;-80
2022/04/30 09:00:42;;;;;;;0.80;0.80;;;;;;;25.96;27.49;101574.91;1789439;80;21443;-81
2022/04/30 09:03:10;;;;;;;5.80;0.90;;;;;;;26.09;26.55;101567.68;1789560;80;20931;-82
2022/04/30 09:05:37;;;;;;;3.17;0.80;;;;;;;26.13;27.20;101565.50;1759607;80;21388;-83
2022/04/30 09:08:05;;;;;;;1.25;0.62;;;;;;;26.26;27.05;101567.16;1789539;80;20896;-81
2022/04/30 09:10:35;;;;;;;3.72;1.17;;;;;;;26.24;26.61;101563.79;1789568;80;21480;-83
2022/04/30 09:13:15;;;;;;;0.98;0.88;;;;;;;26.09;27.65;101554.75;1789360;80;21326;-81
2022/04/30 09:15:44;;;;;;;2.12;0.62;;;;;;;26.00;26.91;101550.72;1789626;80;20852;-82
2022/04/30 09:18:15;;;;;;;1.65;0.68;;;;;;;25.93;26.23;101551.08;1789454;80;20939;-82
2022/04/30 09:20:51;;;;;;;1.17;1.07;;;;;;;25.90;25.76;101551.43;1789302;80;20886;-82
2022/04/30 09:23:27;;;;;;;0.88;0.88;;;;;;;26.01;25.03;101547.05;1789498;80;21263;-82
2022/04/30 09:25:55;;;;;;;1.02;0.90;;;;;;;25.82;25.21;101543.34;1789427;80;20864;-82
2022/04/30 09:28:27;;;;;;;1.35;0.70;;;;;;;25.54;25.21;101538.30;1777438;80;20991;-80
2022/04/30 09:31:08;;;;;;;;;;;;;;;25.35;25.93;101544.02;1780019;80;20889;-83
2022/04/30 09:33:53;;;;;;;2.90;1.07;;;;;;;25.50;26.47;101538.80;1776051;80;20112;-83
2022/04/30 09:39:17;;;;;;;1.20;0.80;;;;;;;26.11;24.91;101540.12;1777074;80;21232;-82
2022/04/30 09:41:44;;;;;;;1.67;0.88;;;;;;;26.17;24.62;101536.75;1776699;80;20881;-82
2022/04/30 09:44:14;;;;;;;1.32;0.78;;;;;;;26.13;23.89;101531.89;1778870;79;20979;-78
2022/04/30 09:46:41;;;;;;;0.90;0.80;;;;;;;26.02;23.37;101533.92;1778591;79;20936;-80
2022/04/30 09:54:42;;;;;;;3.55;0.68;;;;;;;25.65;23.17;101523.18;1775381;80;20892;-82
2022/04/30 09:57:09;;;;;;;1.22;0.70;;;;;;;25.50;24.29;101524.03;1753206;80;20960;-82
2022/04/30 09:59:38;;;;;;;1.20;0.95;;;;;;;25.56;24.26;101516.14;1775357;80;21240;-84
2022/04/30 10:02:08;;;;;;;1.35;0.78;;;;;;;25.67;24.75;101528.91;1775312;80;21164;-82
2022/04/30 10:04:35;;;;;;;0.80;0.60;;;;;;;25.63;24.28;101515.82;1775254;80;21061;-82
2022/04/30 10:07:04;;;;;;;1.10;1.00;;;;;;;25.69;24.30;101525.55;1775286;80;20932;-83
2022/04/30 10:09:37;;;;;;;2.27;0.72;;;;;;;25.81;22.60;101514.28;1775528;80;21526;-82
2022/04/30 10:12:32;;;;;;;2.85;0.70;;;;;;;26.03;22.18;101517.28;1776503;80;20885;-78
2022/04/30 10:15:13;;;;;;;6.12;0.53;;;;;;;26.30;23.10;101516.53;1775931;80;21212;-82
2022/04/30 10:17:44;;;;;;;2.53;0.80;;;;;;;26.55;21.86;101502.48;1674373;85;20881;-82
2022/04/30 10:20:17;;;;;;;3.02;0.72;;;;;;;26.52;21.06;101509.55;1674138;85;21481;-81
2022/04/30 10:22:54;;;;;;;1.22;0.50;;;;;;;26.37;21.68;101502.23;1674301;85;20894;-83
2022/04/30 10:25:35;;;;;;;1.47;0.60;;;;;;;26.36;21.49;101503.22;1674312;85;20885;-82
2022/04/30 10:28:18;;;;;;;0.40;0.40;;;;;;;26.31;21.67;101506.12;1683549;85;21258;-82
2022/04/30 10:30:46;;;;;;;;;;;;;;;26.08;21.57;101497.94;1692061;85;20873;-82
2022/04/30 10:33:13;;;;;;;1.20;0.55;;;;;;;25.83;21.90;101495.28;1689646;85;20131;-83
2022/04/30 10:35:46;;;;;;;1.50;0.72;;;;;;;25.71;22.75;101498.01;1689469;85;20991;-83
2022/04/30 10:38:19;;;;;;;1.02;0.80;;;;;;;25.61;21.73;101486.94;1689076;85;21113;-83
2022/04/30 10:40:51;;;;;;;1.87;0.72;;;;;;;25.33;22.30;101492.33;1689433;85;21438;-81
2022/04/30 10:43:19;;;;;;;4.03;0.95;;;;;;;25.06;22.61;101498.79;1689419;85;21065;-81
2022/04/30 10:45:46;;;;;;;3.20;0.75;;;;;;;24.83;23.44;101488.69;1689464;85;21664;-81
2022/04/30 10:48:12;;;;;;;1.25;0.72;;;;;;;24.86;23.63;101491.06;1689808;85;21493;-82
2022/04/30 10:50:40;;;;;;;1.07;0.68;;;;;;;25.03;24.64;101491.91;1689527;85;20968;-82
2022/04/30 10:53:08;;;;;;;2.00;0.42;;;;;;;25.09;24.16;101480.52;1689432;85;21617;-82
2022/04/30 10:55:34;;;;;;;0.40;0.40;;;;;;;25.10;22.46;101485.38;1768820;80;20900;-79
2022/04/30 10:58:01;;;;;;;1.30;0.42;;;;;;;24.92;23.32;101473.45;1781194;80;20929;-80
2022/04/30 11:00:28;;;;;;;1.70;0.53;;;;;;;25.01;23.02;101477.81;1781096;80;20975;-82
2022/04/30 11:03:10;;;;;;;1.60;0.70;;;;;;;25.04;22.24;101480.19;1781312;80;21358;-82
2022/04/30 11:05:37;;;;;;;2.30;0.72;;;;;;;24.77;22.42;101462.55;1780993;80;21271;-82
2022/04/30 11:08:04;;;;;;;1.22;1.10;;;;;;;24.60;23.42;101467.84;1781204;80;21046;-82
2022/04/30 11:10:32;;;;;;;4.53;0.90;;;;;;;24.41;23.50;101468.08;1781418;79;20884;-82
2022/04/30 11:13:07;;;;;;;0.78;0.50;;;;;;;24.17;23.43;101457.62;1781138;79;20908;-81
2022/04/30 11:15:33;;;;;;;0.93;0.80;;;;;;;23.73;23.40;101459.02;1781277;80;20876;-82
2022/04/30 11:18:00;;;;;;;0.90;0.90;;;;;;;23.28;23.76;101463.22;1781458;80;21196;-84
2022/04/30 11:20:27;;;;;;;5.33;1.20;;;;;;;22.96;23.79;101458.70;1781052;80;20959;-81
2022/04/30 11:23:00;;;;;;;1.40;0.50;;;;;;;22.61;23.84;101451.98;1781022;79;21417;-81
2022/04/30 11:25:36;;;;;;;1.10;0.70;;;;;;;22.30;24.90;101455.00;1780984;80;21412;-82
2022/04/30 11:28:08;;;;;;;1.60;0.78;;;;;;;22.18;24.95;101455.62;1778478;79;20832;-82
2022/04/30 11:30:40;;;;;;;4.42;0.93;;;;;;;22.11;24.94;101458.55;1776065;80;21257;-82
2022/04/30 11:33:08;;;;;;;2.05;0.60;;;;;;;21.90;24.26;101456.11;1775290;80;20884;-80
2022/04/30 11:35:34;;;;;;;1.22;0.60;;;;;;;21.81;25.22;101444.94;1775851;80;20848;-81
2022/04/30 11:38:03;;;;;;;1.05;0.70;;;;;;;21.87;25.88;101426.50;1776253;80;20912;-79
2022/04/30 11:40:32;;;;;;;1.55;0.90;;;;;;;22.04;24.80;101434.25;1775913;80;21524;-82
2022/04/30 11:42:59;;;;;;;0.88;0.60;;;;;;;21.88;23.68;101430.04;1775531;80;21241;-83
2022/04/30 11:45:29;;;;;;;1.15;0.75;;;;;;;21.60;24.21;101425.96;1775212;80;20924;-83
2022/04/30 11:47:59;;;;;;;1.57;0.93;;;;;;;21.51;25.03;101423.66;1775402;80;20971;-82
2022/04/30 11:50:26;;;;;;;1.47;0.80;;;;;;;21.56;25.23;101416.55;1774642;80;20890;-82
2022/04/30 11:52:54;;;;;;;4.15;1.15;;;;;;;21.52;25.51;101420.02;1775222;79;20912;-82
2022/04/30 11:55:20;;;;;;;0.62;0.62;;;;;;;21.47;26.08;101414.75;1775796;80;21208;-81
2022/04/30 11:57:48;;;;;;;2.52;0.80;;;;;;;21.46;25.17;101419.25;1776484;80;21010;-81
2022/04/30 12:00:17;;;;;;;1.65;0.78;;;;;;;21.32;25.11;101405.84;1775232;79;21338;-83
2022/04/30 12:02:49;;;;;;;2.47;0.80;;;;;;;21.02;25.22;101408.67;1775252;80;21282;-83
2022/04/30 12:05:15;;;;;;;1.92;1.20;;;;;;;20.88;25.57;101410.78;1775326;80;20880;-81
2022/04/30 12:07:45;;;;;;;1.98;0.65;;;;;;;20.89;25.67;101395.12;1775354;80;21165;-82
2022/04/30 12:10:22;;;;;;;2.05;0.95;;;;;;;20.84;25.16;101405.87;1775296;80;20915;-82
2022/04/30 12:12:50;;;;;;;2.15;0.95;;;;;;;20.76;25.21;101396.38;1775323;79;20936;-84
2022/04/30 12:15:20;;;;;;;1.00;0.90;;;;;;;20.50;25.40;101392.91;1775591;80;20915;-81